Time;durP1;ratioP1;P1;durP2;ratioP2;P2;SDS_P1;SDS_P2;PMS_P1;PMS_P2;Temp;Humidity;BMP_temperature;BMP_pressure;BME280_temperature;BME280_humidity;BME280_pressure;Samples;Min_cycle;Max_cycle;Signal;HPM_P1;HPM_P2
2023/10/16 00:02:12;;;;;;;;;;;;;;;15.85;53.15;99061.94;5030042;28;19913;-96
2023/10/16 00:05:08;;;;;;;;;;;;;;;15.78;53.21;99074.34;5044700;28;19913;-96
2023/10/16 00:07:27;;;;;;;;;;;;;;;15.73;53.29;99075.31;5046083;28;19955;-95
2023/10/16 00:09:54;;;;;;;;;;;;;;;15.72;53.44;99071.75;5040264;28;19948;-96
2023/10/16 00:12:19;;;;;;;;;;;;;;;15.66;53.55;99072.97;5030399;28;19913;-95
2023/10/16 00:14:47;;;;;;;;;;;;;;;15.64;53.63;99077.91;5040447;28;20289;-96
2023/10/16 00:17:15;;;;;;;;;;;;;;;15.60;53.71;99086.97;5039581;28;19920;-96
2023/10/16 00:19:44;;;;;;;;;;;;;;;15.53;53.81;99096.34;5040054;28;20008;-95
2023/10/16 00:22:18;;;;;;;;;;;;;;;15.44;53.60;99094.66;5024905;28;19917;-94
2023/10/16 00:24:47;;;;;;;;;;;;;;;15.40;53.37;99102.66;5027285;28;20007;-94
2023/10/16 00:27:15;;;;;;;;;;;;;;;15.29;53.46;99107.50;5025930;28;20007;-94
2023/10/16 00:29:43;;;;;;;;;;;;;;;15.32;53.08;99106.88;5025406;28;19959;-95
2023/10/16 00:32:09;;;;;;;;;;;;;;;15.24;52.87;99120.38;5024138;28;19912;-95
2023/10/16 00:34:34;;;;;;;;;;;;;;;15.20;52.79;99122.09;5041258;28;20003;-96
2023/10/16 00:37:01;;;;;;;;;;;;;;;15.08;53.33;99128.03;5024713;28;19998;-94
2023/10/16 00:39:28;;;;;;;;;;;;;;;15.03;53.33;99126.25;5023747;28;19912;-94
2023/10/16 00:41:57;;;;;;;;;;;;;;;14.96;53.30;99133.97;5039243;28;19976;-95
2023/10/16 00:44:23;;;;;;;;;;;;;;;14.98;53.38;99145.31;5041230;28;20354;-93
2023/10/16 00:46:48;;;;;;;;;;;;;;;14.98;53.03;99136.38;5040264;28;19936;-94
2023/10/16 00:49:14;;;;;;;;;;;;;;;14.98;53.10;99145.31;5024124;28;19917;-95
2023/10/16 00:51:40;;;;;;;;;;;;;;;14.89;53.29;99139.81;5023095;28;19913;-94
2023/10/16 00:54:18;;;;;;;;;;;;;;;14.80;53.65;99143.53;5024994;28;19923;-95
2023/10/16 00:56:43;;;;;;;;;;;;;;;14.78;53.98;99146.56;5028090;28;20382;-94
2023/10/16 00:59:09;;;;;;;;;;;;;;;14.75;54.08;99145.25;5022998;28;19917;-93
2023/10/16 01:01:43;;;;;;;;;;;;;;;14.81;54.02;99143.22;5042999;28;19913;-93
2023/10/16 01:04:09;;;;;;;;;;;;;;;14.77;54.07;99153.06;5042230;28;19913;-94
2023/10/16 01:06:37;;;;;;;;;;;;;;;14.72;54.02;99162.09;5029277;28;20390;-96
2023/10/16 01:09:09;;;;;;;;;;;;;;;14.65;54.38;99163.59;5025396;28;19897;-96
2023/10/16 01:11:37;;;;;;;;;;;;;;;14.68;54.49;99171.94;5023609;28;19927;-95
2023/10/16 01:14:05;;;;;;;;;;;;;;;14.60;54.58;99169.91;5022835;28;20337;-94
2023/10/16 01:16:39;;;;;;;;;;;;;;;14.60;53.60;99185.38;5042730;28;20062;-96
2023/10/16 01:19:14;;;;;;;;;;;;;;;14.49;53.68;99184.75;5023815;28;20395;-93
2023/10/16 01:21:39;;;;;;;;;;;;;;;14.37;54.01;99203.38;5058479;28;19920;-96
2023/10/16 01:24:12;;;;;;;;;;;;;;;14.21;54.43;99197.41;5058557;28;19956;-95
2023/10/16 01:26:38;;;;;;;;;;;;;;;14.15;54.58;99199.38;5042142;28;19972;-95
2023/10/16 01:29:07;;;;;;;;;;;;;;;14.18;54.71;99204.22;5039655;28;19912;-96
2023/10/16 01:31:33;;;;;;;;;;;;;;;14.17;54.34;99213.44;5024191;28;19971;-93
2023/10/16 01:33:58;;;;;;;;;;;;;;;14.18;54.03;99220.47;5039846;28;19923;-92
2023/10/16 01:36:24;;;;;;;;;;;;;;;14.18;54.17;99230.50;5023108;28;19913;-93
2023/10/16 01:38:49;;;;;;;;;;;;;;;14.07;54.33;99222.56;5021706;28;19939;-94
2023/10/16 01:41:15;;;;;;;;;;;;;;;14.15;53.83;99221.06;5023604;28;19913;-93
2023/10/16 01:43:43;;;;;;;;;;;;;;;14.10;53.73;99224.66;5022925;28;19940;-92
2023/10/16 01:46:09;;;;;;;;;;;;;;;13.90;54.17;99222.25;5023309;28;20009;-93
2023/10/16 01:48:39;;;;;;;;;;;;;;;13.80;54.15;99227.81;5022357;28;19913;-94
2023/10/16 01:51:09;;;;;;;;;;;;;;;13.91;53.93;99251.75;5039496;28;19948;-94
2023/10/16 01:53:36;;;;;;;;;;;;;;;13.85;54.14;99241.28;5040944;28;19966;-94
2023/10/16 01:56:12;;;;;;;;;;;;;;;13.86;54.30;99237.47;5025455;28;20371;-94
2023/10/16 01:58:37;;;;;;;;;;;;;;;13.90;53.99;99239.31;5043973;28;20394;-95
2023/10/16 02:01:03;;;;;;;;;;;;;;;13.86;53.96;99251.84;5042501;28;19913;-94
2023/10/16 02:03:29;;;;;;;;;;;;;;;13.91;53.89;99259.88;5026484;28;19969;-94
2023/10/16 02:05:55;;;;;;;;;;;;;;;13.85;53.72;99269.16;5026746;28;19940;-93
2023/10/16 02:08:21;;;;;;;;;;;;;;;13.77;54.05;99266.31;5027599;28;19963;-95
2023/10/16 02:10:50;;;;;;;;;;;;;;;13.83;53.60;99265.94;5030638;28;20456;-94
2023/10/16 02:13:15;;;;;;;;;;;;;;;13.83;53.45;99270.56;5025825;28;20313;-93
2023/10/16 02:15:42;;;;;;;;;;;;;;;13.68;53.50;99277.00;5025894;28;19913;-93
2023/10/16 02:18:13;;;;;;;;;;;;;;;13.61;54.00;99288.16;5024936;28;20336;-93
2023/10/16 02:20:45;;;;;;;;;;;;;;;13.66;53.44;99295.41;5026361;28;19955;-94
2023/10/16 02:23:10;;;;;;;;;;;;;;;13.62;53.48;99305.19;5024397;28;19912;-93
2023/10/16 02:25:35;;;;;;;;;;;;;;;13.65;53.35;99302.69;5023694;28;19932;-93
2023/10/16 02:28:08;;;;;;;;;;;;;;;13.63;52.84;99304.09;5023384;28;19970;-92
2023/10/16 02:30:38;;;;;;;;;;;;;;;13.62;52.40;99322.25;5025184;28;19912;-93
2023/10/16 02:33:14;;;;;;;;;;;;;;;13.52;52.79;99317.75;5024023;28;19913;-93
2023/10/16 02:35:42;;;;;;;;;;;;;;;13.53;52.30;99311.25;5041715;28;19954;-93
2023/10/16 02:38:13;;;;;;;;;;;;;;;13.56;52.05;99311.78;5023657;28;20398;-93
2023/10/16 02:40:39;;;;;;;;;;;;;;;13.52;51.84;99311.53;5024710;28;19912;-92
2023/10/16 02:43:25;;;;;;;;;;;;;;;13.46;51.86;99315.41;5041484;28;19966;-91
2023/10/16 02:45:54;;;;;;;;;;;;;;;13.55;51.35;99316.38;5041826;28;20448;-94
2023/10/16 02:48:20;;;;;;;;;;;;;;;13.45;51.43;99328.13;5025090;28;20368;-93
2023/10/16 02:50:50;;;;;;;;;;;;;;;13.42;51.45;99328.69;5025111;28;19917;-94
2023/10/16 02:53:24;;;;;;;;;;;;;;;13.24;51.44;99322.13;5024128;28;19963;-92
2023/10/16 02:55:50;;;;;;;;;;;;;;;13.29;51.70;99323.97;5024635;28;19913;-91
2023/10/16 02:58:15;;;;;;;;;;;;;;;13.27;51.65;99318.81;5022630;28;19993;-93
2023/10/16 03:00:49;;;;;;;;;;;;;;;13.28;51.45;99333.13;5023321;28;19913;-92
2023/10/16 03:03:28;;;;;;;;;;;;;;;13.32;51.34;99334.22;5016547;28;19917;-92
2023/10/16 03:05:55;;;;;;;;;;;;;;;13.24;51.26;99326.69;4983770;28;19913;-91
2023/10/16 03:08:22;;;;;;;;;;;;;;;13.24;51.29;99326.69;4983938;28;19952;-92
2023/10/16 03:10:54;;;;;;;;;;;;;;;13.22;51.38;99326.16;5000253;28;19920;-92
2023/10/16 03:13:19;;;;;;;;;;;;;;;13.27;51.10;99334.25;4999568;28;19920;-91
2023/10/16 03:15:47;;;;;;;;;;;;;;;13.39;50.94;99333.88;4983057;28;19985;-93
2023/10/16 03:18:20;;;;;;;;;;;;;;;13.36;50.96;99337.94;4983481;28;19930;-96
2023/10/16 03:20:45;;;;;;;;;;;;;;;13.38;50.50;99343.06;4984041;28;20012;-94
2023/10/16 03:23:12;;;;;;;;;;;;;;;13.34;50.81;99342.84;4984888;28;19953;-95
2023/10/16 03:28:06;;;;;;;;;;;;;;;13.25;50.70;99347.25;5002342;28;19905;-95
2023/10/16 03:30:32;;;;;;;;;;;;;;;13.28;50.18;99354.78;4983967;28;20015;-95
2023/10/16 03:32:58;;;;;;;;;;;;;;;13.24;49.83;99353.72;4999381;28;19914;-94
2023/10/16 03:35:26;;;;;;;;;;;;;;;13.21;49.99;99349.72;5021450;28;19951;-94
2023/10/16 03:37:52;;;;;;;;;;;;;;;13.22;49.97;99358.63;5023457;28;20391;-94
2023/10/16 03:40:19;;;;;;;;;;;;;;;13.24;49.53;99364.53;5023516;28;19975;-93
2023/10/16 03:42:45;;;;;;;;;;;;;;;13.20;49.13;99367.03;5023619;28;20275;-92
2023/10/16 03:45:13;;;;;;;;;;;;;;;13.18;48.41;99379.22;5022562;28;20016;-94
2023/10/16 03:47:38;;;;;;;;;;;;;;;13.14;48.39;99381.69;5024242;28;19952;-93
2023/10/16 03:50:04;;;;;;;;;;;;;;;13.11;48.39;99387.66;5022502;28;19920;-93
2023/10/16 03:52:29;;;;;;;;;;;;;;;13.12;48.23;99381.97;5040823;28;20378;-92
2023/10/16 03:54:55;;;;;;;;;;;;;;;13.10;48.37;99384.16;5024051;28;19987;-92
2023/10/16 03:57:20;;;;;;;;;;;;;;;13.05;48.16;99377.97;5023619;28;19901;-95
2023/10/16 03:59:47;;;;;;;;;;;;;;;13.09;47.73;99373.63;5024020;28;20305;-91
2023/10/16 04:02:17;;;;;;;;;;;;;;;13.09;47.45;99373.63;5039919;28;19917;-92
2023/10/16 04:04:42;;;;;;;;;;;;;;;13.05;47.43;99399.59;5023011;28;20321;-91
2023/10/16 04:07:10;;;;;;;;;;;;;;;13.01;47.47;99401.25;5021951;28;20007;-92
2023/10/16 04:09:40;;;;;;;;;;;;;;;13.01;47.03;99403.97;5039565;28;19917;-92
2023/10/16 04:12:17;;;;;;;;;;;;;;;13.00;47.38;99418.59;5019711;28;19920;-92
2023/10/16 04:14:45;;;;;;;;;;;;;;;13.07;46.70;99410.94;5036205;28;19914;-92
2023/10/16 04:17:11;;;;;;;;;;;;;;;13.11;46.70;99414.69;5025112;28;19993;-90
2023/10/16 04:19:47;;;;;;;;;;;;;;;13.10;46.46;99419.28;5002650;28;20000;-92
2023/10/16 04:22:16;;;;;;;;;;;;;;;12.87;46.79;99423.53;5004463;28;19923;-91
2023/10/16 04:24:44;;;;;;;;;;;;;;;12.75;47.15;99415.00;5003060;28;20039;-93
2023/10/16 04:29:49;;;;;;;;;;;;;;;12.69;47.11;99406.09;5020183;28;20324;-92
2023/10/16 04:37:49;;;;;;;;;;;;;;;12.78;46.38;99421.72;5021813;28;19975;-92
2023/10/16 05:06:14;;;;;;;;;;;;;;;12.86;46.21;99477.88;5023929;28;19924;-91
2023/10/16 05:08:59;;;;;;;;;;;;;;;12.82;47.02;99483.00;5022138;28;20337;-91
2023/10/16 05:22:03;;;;;;;;;;;;;;;12.92;47.56;99488.34;5025335;28;19925;-90
2023/10/16 06:18:04;;;;;;;;;;;;;;;13.07;44.66;99602.88;5098646;28;19958;-92
2023/10/16 06:20:31;;;;;;;;;;;;;;;13.24;44.09;99616.00;5064876;28;19912;-92
2023/10/16 06:22:58;;;;;;;;;;;;;;;13.29;44.26;99624.94;5081847;28;19912;-94
2023/10/16 06:25:28;;;;;;;;;;;;;;;13.36;43.91;99630.03;5066433;28;20068;-94
2023/10/16 06:27:54;;;;;;;;;;;;;;;13.41;43.11;99623.81;5065259;28;19923;-93
2023/10/16 06:30:20;;;;;;;;;;;;;;;13.44;43.18;99624.03;5048323;28;19952;-92
2023/10/16 06:32:49;;;;;;;;;;;;;;;13.51;43.02;99639.97;5052519;28;19987;-93
2023/10/16 06:35:16;;;;;;;;;;;;;;;13.47;43.82;99637.00;5062647;28;19913;-91
2023/10/16 06:37:49;;;;;;;;;;;;;;;13.58;42.55;99643.16;5079804;28;19923;-93
2023/10/16 06:40:36;;;;;;;;;;;;;;;;;;;;;
2023/10/16 06:43:13;;;;;;;;;;;;;;;13.46;41.86;99661.63;5080440;28;20007;-91
2023/10/16 06:45:42;;;;;;;;;;;;;;;13.44;41.86;99680.84;5064968;28;19912;-95
2023/10/16 06:48:08;;;;;;;;;;;;;;;13.19;42.49;99656.63;5064338;28;19918;-91
2023/10/16 06:50:39;;;;;;;;;;;;;;;13.32;42.40;99653.31;5060227;28;19982;-91
2023/10/16 06:53:07;;;;;;;;;;;;;;;13.37;42.85;99666.03;5060048;28;20398;-89
2023/10/16 06:55:32;;;;;;;;;;;;;;;13.43;41.88;99675.72;5059406;28;19962;-92
2023/10/16 06:57:59;;;;;;;;;;;;;;;13.44;42.09;99661.91;5062589;28;19972;-91
2023/10/16 07:00:33;;;;;;;;;;;;;;;13.53;41.94;99668.34;5051167;28;19922;-90
2023/10/16 07:03:02;;;;;;;;;;;;;;;13.71;41.56;99680.38;5086620;28;19917;-88
2023/10/16 07:05:43;;;;;;;;;;;;;;;13.67;41.35;99686.66;5073375;28;20401;-92
2023/10/16 07:08:09;;;;;;;;;;;;;;;13.65;41.14;99700.44;5045763;28;19912;-90
2023/10/16 07:10:35;;;;;;;;;;;;;;;13.52;41.12;99706.50;5043275;28;19920;-89
2023/10/16 07:13:02;;;;;;;;;;;;;;;13.44;41.39;99697.06;5058924;28;19913;-88
2023/10/16 07:15:30;;;;;;;;;;;;;;;13.33;41.77;99709.84;5059641;28;19913;-89
2023/10/16 07:17:56;;;;;;;;;;;;;;;13.29;42.32;99694.47;5043121;28;19963;-89
2023/10/16 07:20:30;;;;;;;;;;;;;;;13.34;41.70;99705.22;5059806;28;19913;-88
2023/10/16 07:23:09;;;;;;;;;;;;;;;13.25;41.40;99723.09;5046894;28;20015;-90
2023/10/16 07:28:33;;;;;;;;;;;;;;;13.17;41.96;99729.88;5110402;22;19925;-92
2023/10/16 07:31:15;;;;;;;;;;;;;;;;;;;;;
2023/10/16 07:33:50;;;;;;;;;;;;;;;13.24;42.04;99735.00;5053771;28;19964;-94
2023/10/16 07:36:22;;;;;;;;;;;;;;;13.37;40.89;99739.84;5052318;28;19916;-92
2023/10/16 07:38:58;;;;;;;;;;;;;;;;;;;;;
2023/10/16 07:41:37;;;;;;;;;;;;;;;13.41;40.29;99732.00;5055692;28;20018;-93
2023/10/16 07:44:04;;;;;;;;;;;;;;;13.42;40.00;99741.72;5059260;28;19943;-94
2023/10/16 07:46:33;;;;;;;;;;;;;;;13.46;40.93;99721.94;5026857;28;19916;-94
2023/10/16 07:49:13;;;;;;;;;;;;;;;13.45;40.10;99730.34;5028067;28;20420;-95
2023/10/16 07:51:52;;;;;;;;;;;;;;;13.62;40.55;99725.38;5045789;28;19913;-95
2023/10/16 07:54:28;;;;;;;;;;;;;;;13.69;40.16;99736.69;5045702;28;19935;-95
2023/10/16 07:56:56;;;;;;;;;;;;;;;13.73;38.63;99731.53;5057595;28;19917;-94
2023/10/16 07:59:21;;;;;;;;;;;;;;;13.80;38.50;99733.91;5063792;28;19921;-94
2023/10/16 08:02:08;;;;;;;;;;;;;;;13.80;38.64;99752.84;5031221;28;19913;-96
2023/10/16 08:20:20;;;;;;;;;;;;;;;;;;;;;
2023/10/16 08:23:40;;;;;;;;;;;;;;;14.05;37.18;99755.41;4952438;29;20199;-95
2023/10/16 08:43:52;;;;;;;;;;;;;;;14.13;37.67;99775.66;5069672;22;19925;-95
2023/10/16 08:56:02;;;;;;;;;;;;;;;14.28;37.23;99767.41;4891985;29;19922;-96
2023/10/16 08:58:28;;;;;;;;;;;;;;;14.25;37.11;99789.63;4979248;28;19957;-96
2023/10/16 09:01:17;;;;;;;;;;;;;;;14.32;37.03;99792.84;4998338;28;20328;-92
2023/10/16 09:04:12;;;;;;;;;;;;;;;14.40;37.77;99779.78;5020915;28;19974;-96
2023/10/16 09:06:38;;;;;;;;;;;;;;;14.56;37.21;99792.13;5008182;28;19921;-93
2023/10/16 09:09:12;;;;;;;;;;;;;;;14.60;36.84;99795.91;5007394;28;19901;-94
2023/10/16 09:11:40;;;;;;;;;;;;;;;14.55;36.22;99787.78;5010926;28;19913;-93
2023/10/16 09:14:09;;;;;;;;;;;;;;;14.49;37.04;99783.50;5007922;28;19920;-93
2023/10/16 09:16:52;;;;;;;;;;;;;;;14.60;36.66;99797.81;5007521;28;19914;-94
2023/10/16 09:19:27;;;;;;;;;;;;;;;14.78;36.25;99790.88;5011290;28;19918;-95
2023/10/16 09:21:56;;;;;;;;;;;;;;;14.80;36.11;99791.41;5026142;28;19913;-93
2023/10/16 09:27:38;;;;;;;;;;;;;;;14.71;36.40;99785.75;5048176;28;19924;-92
2023/10/16 09:30:14;;;;;;;;;;;;;;;14.78;36.13;99785.47;5011365;28;20366;-89
2023/10/16 09:32:47;;;;;;;;;;;;;;;14.80;35.88;99777.84;5007426;28;19917;-93
2023/10/16 09:35:15;;;;;;;;;;;;;;;14.85;35.77;99780.50;5005622;28;19913;-92
2023/10/16 09:37:52;;;;;;;;;;;;;;;14.83;35.74;99788.91;5022269;28;20379;-92
2023/10/16 09:40:37;;;;;;;;;;;;;;;14.78;35.92;99788.97;5006994;28;19967;-93
2023/10/16 09:43:06;;;;;;;;;;;;;;;14.91;35.23;99793.69;5012755;28;19925;-94
2023/10/16 09:45:35;;;;;;;;;;;;;;;14.96;35.51;99811.81;5023033;28;19917;-92
2023/10/16 09:48:18;;;;;;;;;;;;;;;;;;;;;
2023/10/16 09:50:46;;;;;;;;;;;;;;;14.89;35.16;99790.47;4995041;28;20447;-93
2023/10/16 09:53:17;;;;;;;;;;;;;;;14.96;35.17;99779.28;5043966;28;19974;-93
2023/10/16 09:55:52;;;;;;;;;;;;;;;15.04;35.00;99785.97;5061981;28;20331;-93
2023/10/16 09:58:18;;;;;;;;;;;;;;;15.04;35.04;99781.34;5038201;28;19955;-96
2023/10/16 10:00:49;;;;;;;;;;;;;;;15.12;35.01;99774.50;5046794;28;19917;-96
2023/10/16 10:03:23;;;;;;;;;;;;;;;15.11;34.71;99779.13;5035950;28;19901;-95
2023/10/16 10:06:24;;;;;;;;;;;;;;;15.17;34.83;99779.88;5030064;28;19914;-96
2023/10/16 10:14:49;;;;;;;;;;;;;;;;;;;;;
2023/10/16 10:17:52;;;;;;;;;;;;;;;15.45;34.51;99763.81;4998932;28;19977;-94
2023/10/16 10:26:59;;;;;;;;;;;;;;;;;;;;;
2023/10/16 10:29:35;;;;;;;;;;;;;;;15.95;33.55;99756.06;5033737;28;19921;-96
2023/10/16 10:32:12;;;;;;;;;;;;;;;15.89;33.14;99782.50;5009630;28;19913;-96
2023/10/16 10:34:52;;;;;;;;;;;;;;;15.96;32.91;99757.72;5023074;28;19913;-95
2023/10/16 10:37:40;;;;;;;;;;;;;;;16.02;33.30;99752.97;5026942;28;19914;-96
2023/10/16 10:50:28;;;;;;;;;;;;;;;;;;;;;
2023/10/16 10:53:35;;;;;;;;;;;;;;;15.83;32.61;99767.38;4930249;29;19946;-96
2023/10/16 10:56:30;;;;;;;;;;;;;;;;;;;;;
2023/10/16 11:05:34;;;;;;;;;;;;;;;16.00;32.58;99753.31;5009051;28;20406;-96
2023/10/16 11:17:07;;;;;;;;;;;;;;;16.08;31.92;99758.06;4956191;29;19933;-93
2023/10/16 11:20:05;;;;;;;;;;;;;;;;;;;;;
2023/10/16 11:23:06;;;;;;;;;;;;;;;;;;;;;
2023/10/16 11:25:52;;;;;;;;;;;;;;;15.82;32.39;99756.81;4977825;28;20056;-90
2023/10/16 11:28:38;;;;;;;;;;;;;;;;;;;;;
2023/10/16 11:34:58;;;;;;;;;;;;;;;;;;;;;
2023/10/16 11:52:57;;;;;;;;;;;;;;;16.12;31.50;99741.97;5003577;28;19924;-96
2023/10/16 11:55:33;;;;;;;;;;;;;;;;;;;;;
2023/10/16 12:07:01;;;;;;;;;;;;;;;;;;;;;
2023/10/16 12:10:15;;;;;;;;;;;;;;;;;;;;;
2023/10/16 12:16:03;;;;;;;;;;;;;;;16.40;30.82;99740.16;5052094;28;19908;-95
2023/10/16 12:19:05;;;;;;;;;;;;;;;;;;;;;
2023/10/16 12:21:31;;;;;;;;;;;;;;;16.38;30.43;99736.94;5019533;28;19976;-96
2023/10/16 12:24:01;;;;;;;;;;;;;;;16.34;30.70;99738.63;5028492;28;19917;-95
2023/10/16 12:26:26;;;;;;;;;;;;;;;16.39;30.64;99735.81;5039928;28;19935;-93
2023/10/16 12:42:57;;;;;;;;;;;;;;;16.23;30.45;99721.69;5064646;28;19940;-96
2023/10/16 12:45:43;;;;;;;;;;;;;;;16.25;30.11;99738.50;5042466;28;19924;-94
2023/10/16 12:48:39;;;;;;;;;;;;;;;16.20;30.51;99744.00;5037873;28;19918;-94
2023/10/16 12:51:34;;;;;;;;;;;;;;;16.23;30.09;99727.13;5027900;28;19916;-94
2023/10/16 12:54:13;;;;;;;;;;;;;;;;;;;;;
2023/10/16 12:59:42;;;;;;;;;;;;;;;16.05;29.79;99734.19;5022222;28;19917;-95
2023/10/16 13:02:35;;;;;;;;;;;;;;;;;;;;;
2023/10/16 13:05:13;;;;;;;;;;;;;;;16.21;29.62;99737.47;5063259;28;19976;-96
2023/10/16 13:11:13;;;;;;;;;;;;;;;16.09;30.23;99737.94;5010831;28;19929;-96
2023/10/16 13:13:42;;;;;;;;;;;;;;;16.15;30.72;99735.94;5014919;28;20010;-95
2023/10/16 13:16:10;;;;;;;;;;;;;;;16.26;30.70;99739.31;5015221;28;19917;-94
2023/10/16 13:18:36;;;;;;;;;;;;;;;16.32;30.65;99744.34;5014722;28;19921;-94
2023/10/16 13:21:20;;;;;;;;;;;;;;;16.27;30.62;99738.19;5004344;28;20007;-93
2023/10/16 13:23:51;;;;;;;;;;;;;;;16.21;30.10;99734.75;5014515;28;19917;-93
2023/10/16 13:26:17;;;;;;;;;;;;;;;16.24;29.56;99739.59;5026971;28;19917;-90
2023/10/16 13:29:13;;;;;;;;;;;;;;;16.22;28.98;99739.06;5026175;28;19936;-95
2023/10/16 13:32:03;;;;;;;;;;;;;;;16.19;30.21;99741.59;5041606;28;19917;-95
2023/10/16 13:34:29;;;;;;;;;;;;;;;16.13;30.75;99730.81;5032939;28;19913;-96
2023/10/16 13:37:09;;;;;;;;;;;;;;;16.08;30.33;99730.06;5008277;28;19901;-94
2023/10/16 13:40:15;;;;;;;;;;;;;;;15.98;30.44;99728.34;5034945;28;20412;-91
2023/10/16 13:42:54;;;;;;;;;;;;;;;16.05;30.20;99736.09;4960736;28;19972;-92
2023/10/16 13:45:22;;;;;;;;;;;;;;;16.06;29.99;99732.28;5024201;28;19948;-94
2023/10/16 13:47:56;;;;;;;;;;;;;;;16.03;29.97;99738.31;5024538;28;19913;-96
2023/10/16 13:50:32;;;;;;;;;;;;;;;16.07;30.02;99733.91;5036876;28;19913;-95
2023/10/16 13:53:04;;;;;;;;;;;;;;;16.03;29.86;99739.13;5020285;28;19923;-94
2023/10/16 13:55:52;;;;;;;;;;;;;;;15.97;29.78;99729.44;5034813;28;19913;-96
2023/10/16 13:58:31;;;;;;;;;;;;;;;15.95;30.25;99740.59;5043866;28;20015;-94
2023/10/16 14:01:16;;;;;;;;;;;;;;;15.91;29.95;99745.00;5026533;28;19921;-96
2023/10/16 14:03:58;;;;;;;;;;;;;;;;;;;;;
2023/10/16 14:07:03;;;;;;;;;;;;;;;15.92;30.39;99743.91;5031237;28;20003;-93
2023/10/16 14:09:44;;;;;;;;;;;;;;;15.92;30.41;99738.47;5032930;28;19943;-93
2023/10/16 14:12:48;;;;;;;;;;;;;;;;;;;;;
2023/10/16 14:15:22;;;;;;;;;;;;;;;15.94;29.72;99735.47;4968118;29;20452;-96
2023/10/16 14:17:53;;;;;;;;;;;;;;;15.80;29.21;99743.53;5062382;28;19920;-96
2023/10/16 14:20:34;;;;;;;;;;;;;;;15.81;29.43;99739.72;5050446;28;20406;-95
2023/10/16 14:30:48;;;;;;;;;;;;;;;15.73;30.10;99743.13;5042433;28;19925;-94
2023/10/16 14:33:14;;;;;;;;;;;;;;;15.73;30.06;99745.81;5011816;28;19940;-95
2023/10/16 14:35:39;;;;;;;;;;;;;;;15.70;29.63;99751.78;5007523;28;19914;-93
2023/10/16 14:38:10;;;;;;;;;;;;;;;15.65;29.37;99749.16;5026777;28;19917;-95
2023/10/16 14:40:42;;;;;;;;;;;;;;;15.62;29.41;99757.88;5032889;28;19952;-92
2023/10/16 14:43:08;;;;;;;;;;;;;;;15.51;29.88;99763.44;5012037;28;19917;-94
2023/10/16 14:45:38;;;;;;;;;;;;;;;15.60;29.29;99757.38;5026787;28;19924;-92
2023/10/16 14:48:16;;;;;;;;;;;;;;;15.57;29.34;99758.75;5029133;28;19928;-96
2023/10/16 14:50:59;;;;;;;;;;;;;;;;;;;;;
2023/10/16 14:53:28;;;;;;;;;;;;;;;15.53;29.27;99763.16;4991873;28;19960;-96
2023/10/16 14:55:54;;;;;;;;;;;;;;;15.52;28.93;99772.38;5047885;28;19920;-95
2023/10/16 14:58:23;;;;;;;;;;;;;;;15.48;28.96;99774.06;5033120;28;19917;-96
2023/10/16 15:01:01;;;;;;;;;;;;;;;15.45;29.22;99766.53;5046483;28;19920;-96
2023/10/16 15:04:17;;;;;;;;;;;;;;;15.38;29.26;99772.31;5054625;28;19928;-96
2023/10/16 15:06:41;;;;;;;;;;;;;;;15.32;29.55;99768.84;5064026;28;19917;-95
2023/10/16 15:09:16;;;;;;;;;;;;;;;15.30;30.35;99770.25;5055765;28;19913;-96
2023/10/16 15:11:49;;;;;;;;;;;;;;;15.30;29.71;99775.66;5011357;28;19920;-95
2023/10/16 15:14:37;;;;;;;;;;;;;;;15.30;29.73;99770.25;4971809;28;19938;-95
2023/10/16 15:17:15;;;;;;;;;;;;;;;15.24;29.79;99777.63;4970968;29;19914;-94
2023/10/16 15:19:41;;;;;;;;;;;;;;;15.20;29.83;99773.06;4970342;29;19981;-95
2023/10/16 15:22:06;;;;;;;;;;;;;;;15.17;29.92;99777.19;4959741;29;19907;-94
2023/10/16 15:24:32;;;;;;;;;;;;;;;15.07;30.71;99788.94;4966256;29;19941;-94
2023/10/16 15:26:57;;;;;;;;;;;;;;;15.05;30.42;99784.91;4953280;29;20007;-94
2023/10/16 15:29:26;;;;;;;;;;;;;;;15.05;31.17;99782.19;4968888;28;19965;-95
2023/10/16 15:31:51;;;;;;;;;;;;;;;14.98;31.25;99787.94;4968608;29;19923;-95
2023/10/16 15:34:19;;;;;;;;;;;;;;;14.93;31.36;99793.41;4969375;28;20074;-94
2023/10/16 15:36:45;;;;;;;;;;;;;;;14.89;30.93;99808.66;4986791;28;20328;-94
2023/10/16 15:39:15;;;;;;;;;;;;;;;14.81;31.53;99815.50;5021558;28;19918;-95
2023/10/16 15:41:44;;;;;;;;;;;;;;;14.75;31.81;99812.03;5012913;28;19913;-95
2023/10/16 15:44:13;;;;;;;;;;;;;;;14.74;31.58;99815.81;5011417;28;19902;-94
2023/10/16 15:46:40;;;;;;;;;;;;;;;14.71;31.83;99821.84;5012030;28;19912;-95
2023/10/16 15:49:06;;;;;;;;;;;;;;;14.66;31.48;99821.88;5013912;28;19914;-93
2023/10/16 15:51:32;;;;;;;;;;;;;;;14.63;31.42;99832.47;5012774;28;19914;-94
2023/10/16 15:53:57;;;;;;;;;;;;;;;14.55;32.75;99837.41;5009613;28;20386;-94
2023/10/16 15:56:23;;;;;;;;;;;;;;;14.48;33.03;99836.06;5002364;28;19917;-96
2023/10/16 15:58:51;;;;;;;;;;;;;;;14.42;32.23;99839.91;5002930;28;20354;-94
2023/10/16 16:01:19;;;;;;;;;;;;;;;14.39;31.91;99843.19;5003055;28;19917;-95
2023/10/16 16:03:44;;;;;;;;;;;;;;;14.35;32.14;99835.63;5002913;28;19924;-95
2023/10/16 16:06:10;;;;;;;;;;;;;;;14.29;31.95;99841.38;5002819;28;19913;-92
2023/10/16 16:08:38;;;;;;;;;;;;;;;14.26;32.10;99850.88;5001254;28;19913;-93
2023/10/16 16:11:13;;;;;;;;;;;;;;;14.21;32.25;99858.22;5003509;28;19918;-96
2023/10/16 16:19:32;;;;;;;;;;;;;;;13.84;35.35;99860.31;5017316;28;19987;-96
2023/10/16 16:21:58;;;;;;;;;;;;;;;13.77;34.85;99856.28;5002071;28;19917;-95
2023/10/16 16:24:24;;;;;;;;;;;;;;;13.71;35.29;99866.31;5002443;28;19913;-95
2023/10/16 16:26:49;;;;;;;;;;;;;;;13.65;35.37;99872.81;5002519;28;20347;-96
2023/10/16 16:29:20;;;;;;;;;;;;;;;13.57;35.77;99873.41;5003590;28;19914;-95
2023/10/16 16:31:46;;;;;;;;;;;;;;;13.52;36.13;99874.22;5037712;28;19913;-94
2023/10/16 16:34:11;;;;;;;;;;;;;;;13.48;36.74;99881.28;5037581;28;20371;-94
2023/10/16 16:36:40;;;;;;;;;;;;;;;13.43;36.69;99884.81;5038351;28;19936;-96
2023/10/16 16:39:12;;;;;;;;;;;;;;;13.35;37.04;99874.56;5037626;28;19940;-95
2023/10/16 16:41:38;;;;;;;;;;;;;;;13.37;37.18;99882.41;5038082;28;19971;-96
2023/10/16 16:44:04;;;;;;;;;;;;;;;13.34;37.25;99883.72;5037744;28;20378;-96
2023/10/16 16:46:29;;;;;;;;;;;;;;;13.29;37.56;99886.47;5036969;28;19971;-96
2023/10/16 16:48:55;;;;;;;;;;;;;;;13.22;37.58;99880.47;5037543;28;19920;-96
2023/10/16 16:51:22;;;;;;;;;;;;;;;13.14;38.16;99895.38;5037273;28;19913;-96
2023/10/16 16:53:52;;;;;;;;;;;;;;;13.11;38.00;99904.88;5038691;28;19921;-96
2023/10/16 16:56:18;;;;;;;;;;;;;;;13.08;38.36;99907.28;5037152;28;19928;-94
2023/10/16 16:58:44;;;;;;;;;;;;;;;12.99;38.48;99901.63;5036847;28;19921;-96
2023/10/16 17:01:09;;;;;;;;;;;;;;;12.88;39.91;99898.09;5039401;28;20292;-96
2023/10/16 17:03:36;;;;;;;;;;;;;;;12.76;40.71;99907.56;5038429;28;19919;-96
2023/10/16 17:06:04;;;;;;;;;;;;;;;12.68;40.75;99898.91;5040241;28;20008;-96
2023/10/16 17:08:29;;;;;;;;;;;;;;;12.59;40.66;99903.22;5041085;28;19971;-96
2023/10/16 17:10:55;;;;;;;;;;;;;;;12.53;40.72;99905.13;5038931;28;20379;-96
2023/10/16 17:13:29;;;;;;;;;;;;;;;12.48;41.31;99909.69;5037808;28;19913;-96
2023/10/16 17:15:56;;;;;;;;;;;;;;;12.35;42.04;99911.03;5038775;28;19920;-96
2023/10/16 17:18:31;;;;;;;;;;;;;;;12.21;41.84;99918.00;5037485;28;19917;-96
2023/10/16 17:21:02;;;;;;;;;;;;;;;12.05;41.62;99922.53;5038806;28;19897;-95
2023/10/16 17:23:28;;;;;;;;;;;;;;;11.95;40.95;99926.00;5040552;28;19996;-95
2023/10/16 17:25:53;;;;;;;;;;;;;;;11.94;40.46;99929.78;5041502;28;19917;-95
2023/10/16 17:28:18;;;;;;;;;;;;;;;11.89;41.23;99932.44;5041457;28;19917;-96
2023/10/16 17:30:45;;;;;;;;;;;;;;;11.82;41.10;99932.66;5043342;28;19925;-94
2023/10/16 17:33:11;;;;;;;;;;;;;;;11.83;41.56;99930.78;5042348;28;19913;-96
2023/10/16 17:35:38;;;;;;;;;;;;;;;11.86;40.96;99939.16;5039581;28;19913;-95
2023/10/16 17:38:03;;;;;;;;;;;;;;;11.93;41.62;99939.78;5040919;28;19960;-95
2023/10/16 17:40:29;;;;;;;;;;;;;;;11.98;41.10;99935.47;5040737;28;20445;-96
2023/10/16 17:42:55;;;;;;;;;;;;;;;11.98;41.12;99938.19;5040319;28;19913;-95
2023/10/16 17:45:20;;;;;;;;;;;;;;;11.96;40.95;99938.44;5040478;28;19948;-94
2023/10/16 17:47:46;;;;;;;;;;;;;;;11.93;40.81;99939.78;5038077;28;19925;-94
2023/10/16 17:50:11;;;;;;;;;;;;;;;11.92;40.82;99945.44;5040326;28;19916;-94
2023/10/16 17:52:36;;;;;;;;;;;;;;;11.98;40.38;99948.97;5041242;28;19920;-94